Time;durP1;ratioP1;P1;durP2;ratioP2;P2;SDS_P1;SDS_P2;PMS_P1;PMS_P2;Temp;Humidity;BMP_temperature;BMP_pressure;BME280_temperature;BME280_humidity;BME280_pressure;Samples;Min_cycle;Max_cycle;Signal;HPM_P1;HPM_P2
2023/02/08 00:00:28;;;;;;;;;;;;;;;12.22;69.57;103623.84;1267216;23;639;-66
2023/02/08 00:01:18;;;;;;;;;;;;;;;12.20;69.79;103617.66;1267313;23;657;-66
2023/02/08 00:02:08;;;;;;;;;;;;;;;12.19;70.40;103622.13;1267415;23;610;-67
2023/02/08 00:02:59;;;;;;;;;;;;;;;12.20;69.58;103629.22;1272119;23;1373;-66
2023/02/08 00:03:49;;;;;;;;;;;;;;;12.21;69.53;103622.06;1273150;23;652;-67
2023/02/08 00:04:40;;;;;;;;;;;;;;;12.19;69.57;103624.78;1267236;23;668;-67
2023/02/08 00:05:30;;;;;;;;;;;;;;;12.19;70.36;103627.47;1267190;23;1905;-67
2023/02/08 00:06:21;;;;;;;;;;;;;;;12.20;70.09;103623.00;1267248;23;625;-67
2023/02/08 00:07:11;;;;;;;;;;;;;;;12.20;69.72;103626.53;1267379;23;696;-67
2023/02/08 00:08:01;;;;;;;;;;;;;;;12.18;70.43;103626.59;1267330;23;665;-67
2023/02/08 00:08:52;;;;;;;;;;;;;;;12.19;69.79;103627.47;1267346;23;594;-67
2023/02/08 00:09:42;;;;;;;;;;;;;;;12.18;69.42;103624.88;1267305;23;661;-67
2023/02/08 00:10:33;;;;;;;;;;;;;;;12.14;70.50;103616.91;1267336;23;661;-67
2023/02/08 00:11:23;;;;;;;;;;;;;;;12.12;69.72;103618.75;1267273;23;622;-67
2023/02/08 00:12:13;;;;;;;;;;;;;;;12.10;69.80;103627.72;1266868;23;638;-67
2023/02/08 00:13:04;;;;;;;;;;;;;;;12.07;70.64;103623.34;1267316;23;634;-67
2023/02/08 00:13:54;;;;;;;;;;;;;;;12.06;69.89;103624.25;1267492;23;605;-67
2023/02/08 00:14:45;;;;;;;;;;;;;;;12.06;69.77;103618.91;1267258;23;665;-67
2023/02/08 00:15:35;;;;;;;;;;;;;;;12.05;70.13;103621.63;1267335;23;621;-67
2023/02/08 00:16:26;;;;;;;;;;;;;;;12.05;69.97;103625.16;1267199;23;618;-67
2023/02/08 00:17:16;;;;;;;;;;;;;;;12.04;70.20;103620.75;1267352;23;658;-67
2023/02/08 00:18:06;;;;;;;;;;;;;;;12.04;70.11;103617.19;1267357;23;625;-68
2023/02/08 00:18:57;;;;;;;;;;;;;;;12.00;70.89;103612.88;1267367;23;580;-67
2023/02/08 00:19:47;;;;;;;;;;;;;;;12.00;70.72;103610.19;1267319;23;665;-67
2023/02/08 00:20:38;;;;;;;;;;;;;;;11.99;70.00;103609.31;1267401;23;602;-67
2023/02/08 00:21:29;;;;;;;;;;;;;;;12.01;69.85;103612.81;1267251;23;677;-67
2023/02/08 00:22:19;;;;;;;;;;;;;;;12.01;70.45;103614.59;1267289;23;657;-67
2023/02/08 00:23:09;;;;;;;;;;;;;;;11.99;70.80;103612.00;1267258;23;732;-67
2023/02/08 00:24:00;;;;;;;;;;;;;;;11.98;70.75;103610.22;1272208;23;618;-67
2023/02/08 00:24:50;;;;;;;;;;;;;;;11.98;70.62;103610.22;1273109;23;614;-67
2023/02/08 00:25:41;;;;;;;;;;;;;;;11.98;69.91;103610.22;1267419;23;1923;-67
2023/02/08 00:26:31;;;;;;;;;;;;;;;11.99;70.56;103611.13;1267255;23;792;-68
2023/02/08 00:27:22;;;;;;;;;;;;;;;11.97;70.29;103599.59;1267312;23;657;-68
2023/02/08 00:28:12;;;;;;;;;;;;;;;11.95;71.00;103601.41;1267217;23;648;-67
2023/02/08 00:29:02;;;;;;;;;;;;;;;11.96;70.85;103606.72;1267335;23;622;-67
2023/02/08 00:29:53;;;;;;;;;;;;;;;11.94;70.33;103603.22;1267250;23;661;-67
2023/02/08 00:30:43;;;;;;;;;;;;;;;11.94;70.32;103603.22;1267333;23;665;-68
2023/02/08 00:31:34;;;;;;;;;;;;;;;11.94;70.26;103602.34;1267215;23;620;-67
2023/02/08 00:32:24;;;;;;;;;;;;;;;11.94;70.73;103595.19;1267301;23;645;-67
2023/02/08 00:33:15;;;;;;;;;;;;;;;11.94;70.40;103597.88;1267251;23;618;-67
2023/02/08 00:34:05;;;;;;;;;;;;;;;11.94;70.88;103597.00;1267325;23;629;-67
2023/02/08 00:34:55;;;;;;;;;;;;;;;11.94;70.76;103594.31;1267259;23;744;-68
2023/02/08 00:35:46;;;;;;;;;;;;;;;11.94;70.76;103591.66;1267395;23;570;-67
2023/02/08 00:36:36;;;;;;;;;;;;;;;11.94;70.40;103592.53;1267434;23;669;-67
2023/02/08 00:37:27;;;;;;;;;;;;;;;11.93;70.85;103588.09;1267347;23;645;-67
2023/02/08 00:38:17;;;;;;;;;;;;;;;11.92;70.97;103580.13;1267418;23;649;-67
2023/02/08 00:39:08;;;;;;;;;;;;;;;11.92;69.90;103583.66;1267406;23;658;-67
2023/02/08 00:40:01;;;;;;;;;;;;;;;11.90;70.78;103582.81;1267370;23;665;-67
2023/02/08 00:40:51;;;;;;;;;;;;;;;11.90;70.03;103582.81;1267277;23;618;-67
2023/02/08 00:41:42;;;;;;;;;;;;;;;11.89;70.21;103588.22;1267333;23;649;-67
2023/02/08 00:42:32;;;;;;;;;;;;;;;11.88;70.39;103584.66;1267370;23;646;-67
2023/02/08 00:43:23;;;;;;;;;;;;;;;11.88;70.32;103594.47;1267246;23;645;-67
2023/02/08 00:44:13;;;;;;;;;;;;;;;11.86;70.93;103589.16;1267320;23;629;-67
2023/02/08 00:45:04;;;;;;;;;;;;;;;11.87;70.07;103595.38;1267309;23;732;-67
2023/02/08 00:45:54;;;;;;;;;;;;;;;11.88;70.78;103590.00;1267232;23;1888;-67
2023/02/08 00:46:44;;;;;;;;;;;;;;;11.88;70.11;103591.78;1267265;23;745;-67
2023/02/08 00:47:35;;;;;;;;;;;;;;;11.87;70.37;103588.25;1267220;23;554;-67
2023/02/08 00:48:25;;;;;;;;;;;;;;;11.86;70.73;103588.28;1267275;23;622;-67
2023/02/08 00:49:16;;;;;;;;;;;;;;;11.85;70.81;103590.06;1267296;23;650;-67
2023/02/08 00:50:06;;;;;;;;;;;;;;;11.86;70.93;103593.63;1267215;23;611;-67
2023/02/08 00:50:56;;;;;;;;;;;;;;;11.86;70.54;103588.28;1267336;23;635;-67
2023/02/08 00:51:47;;;;;;;;;;;;;;;11.83;71.24;103589.22;1267479;23;605;-67
2023/02/08 00:52:37;;;;;;;;;;;;;;;11.85;70.86;103589.19;1267348;23;617;-67
2023/02/08 00:53:28;;;;;;;;;;;;;;;11.85;70.81;103582.06;1267306;23;601;-67
2023/02/08 00:54:18;;;;;;;;;;;;;;;11.84;70.73;103585.66;1267338;23;628;-67
2023/02/08 00:55:09;;;;;;;;;;;;;;;11.85;71.08;103582.06;1267348;23;621;-67
2023/02/08 00:55:59;;;;;;;;;;;;;;;11.83;70.79;103582.09;1267214;23;660;-67
2023/02/08 00:56:50;;;;;;;;;;;;;;;11.83;70.32;103578.56;1267663;23;807;-67
2023/02/08 00:57:40;;;;;;;;;;;;;;;11.82;70.21;103590.19;1267720;23;641;-67
2023/02/08 00:58:30;;;;;;;;;;;;;;;11.81;70.18;103594.66;1267700;23;653;-68
2023/02/08 00:59:21;;;;;;;;;;;;;;;11.83;70.38;103584.78;1267656;23;649;-67
2023/02/08 01:00:11;;;;;;;;;;;;;;;11.82;70.53;103590.19;1267813;23;622;-67
2023/02/08 01:01:02;;;;;;;;;;;;;;;11.81;70.93;103585.75;1267642;23;614;-67
2023/02/08 01:01:52;;;;;;;;;;;;;;;11.81;70.88;103594.66;1268557;23;621;-68
2023/02/08 01:02:43;;;;;;;;;;;;;;;11.81;70.81;103588.44;1267565;23;645;-67
2023/02/08 01:03:33;;;;;;;;;;;;;;;11.80;70.31;103589.34;1262418;23;657;-68
2023/02/08 01:04:24;;;;;;;;;;;;;;;11.78;70.89;103581.38;1259761;23;619;-68
2023/02/08 01:05:14;;;;;;;;;;;;;;;11.81;70.35;103583.09;1261610;23;738;-68
2023/02/08 01:06:04;;;;;;;;;;;;;;;11.80;70.55;103584.88;1259782;23;643;-68
2023/02/08 01:06:55;;;;;;;;;;;;;;;11.79;70.34;103585.78;1261844;23;673;-68
2023/02/08 01:07:45;;;;;;;;;;;;;;;11.77;71.00;103590.28;1261481;23;696;-68
2023/02/08 01:08:36;;;;;;;;;;;;;;;11.77;70.18;103587.63;1261648;23;618;-68
2023/02/08 01:09:26;;;;;;;;;;;;;;;11.78;70.09;103586.72;1260826;23;665;-68
2023/02/08 01:10:17;;;;;;;;;;;;;;;11.78;70.56;103591.19;1261024;23;622;-68
2023/02/08 01:11:07;;;;;;;;;;;;;;;11.76;70.60;103585.88;1261534;23;674;-68
2023/02/08 01:11:57;;;;;;;;;;;;;;;11.76;70.75;103588.53;1261692;23;639;-67
2023/02/08 01:12:48;;;;;;;;;;;;;;;11.74;70.20;103587.66;1261765;23;614;-68
2023/02/08 01:13:38;;;;;;;;;;;;;;;11.74;70.36;103582.31;1261514;23;629;-67
2023/02/08 01:14:29;;;;;;;;;;;;;;;11.75;70.50;103585.88;1261583;23;618;-67
2023/02/08 01:15:19;;;;;;;;;;;;;;;11.74;70.57;103593.00;1261542;23;602;-68
2023/02/08 01:16:10;;;;;;;;;;;;;;;11.75;70.59;103585.88;1261626;23;784;-68
2023/02/08 01:17:00;;;;;;;;;;;;;;;11.76;71.02;103593.00;1261611;23;676;-67
2023/02/08 01:17:50;;;;;;;;;;;;;;;11.76;70.47;103593.00;1261623;23;649;-67
2023/02/08 01:18:41;;;;;;;;;;;;;;;11.76;70.40;103588.53;1259840;23;662;-67
2023/02/08 01:19:32;;;;;;;;;;;;;;;11.73;70.33;103583.25;1260735;23;673;-67
2023/02/08 01:20:23;;;;;;;;;;;;;;;11.73;70.91;103593.03;1261546;23;606;-67
2023/02/08 01:21:13;;;;;;;;;;;;;;;11.71;71.08;103595.75;1260057;23;646;-67
2023/02/08 01:22:03;;;;;;;;;;;;;;;11.71;70.36;103586.88;1261664;23;805;-67
2023/02/08 01:22:54;;;;;;;;;;;;;;;11.73;70.98;103587.69;1261674;23;637;-67
2023/02/08 01:23:45;;;;;;;;;;;;;;;11.73;70.30;103590.38;1261544;23;732;-67
2023/02/08 01:24:35;;;;;;;;;;;;;;;11.72;70.46;103594.84;1261548;23;1162;-67
2023/02/08 01:25:25;;;;;;;;;;;;;;;11.72;70.26;103596.63;1261534;23;638;-68
2023/02/08 01:26:16;;;;;;;;;;;;;;;11.71;70.21;103601.09;1261568;23;665;-68
2023/02/08 01:27:06;;;;;;;;;;;;;;;11.71;70.60;103594.88;1260807;23;623;-68
2023/02/08 02:34:36;;;;;;;;;;;;;;;11.52;70.34;103562.41;894017;23;2024;-68
2023/02/08 02:35:26;;;;;;;;;;;;;;;11.48;70.94;103556.28;1261192;23;646;-68
2023/02/08 02:36:17;;;;;;;;;;;;;;;11.47;70.81;103556.31;1260756;23;917;-68
2023/02/08 02:37:08;;;;;;;;;;;;;;;11.48;70.24;103555.41;1261436;23;626;-68
2023/02/08 02:37:58;;;;;;;;;;;;;;;11.44;70.38;103548.41;1260660;23;653;-68
2023/02/08 02:38:49;;;;;;;;;;;;;;;11.44;71.06;103559.09;1260412;23;701;-68
2023/02/08 02:39:39;;;;;;;;;;;;;;;11.45;71.04;103560.84;1260601;23;622;-68
2023/02/08 02:40:29;;;;;;;;;;;;;;;11.46;71.17;103558.09;1260661;23;670;-67
2023/02/08 02:43:40;;;;;;;;;;;;;;;11.46;70.37;103560.78;1260525;23;626;-69
2023/02/08 02:43:43;;;;;;;;;;;;;;;11.41;70.25;103548.47;1260699;23;613;-69
2023/02/08 02:44:34;;;;;;;;;;;;;;;11.40;70.71;103549.38;1266239;23;653;-69
2023/02/08 02:45:24;;;;;;;;;;;;;;;11.39;71.14;103544.97;1267912;23;691;-69
2023/02/08 02:46:15;;;;;;;;;;;;;;;11.46;70.38;103546.56;1262395;23;659;-69
2023/02/08 02:47:06;;;;;;;;;;;;;;;11.47;70.27;103549.19;1261495;23;656;-69
2023/02/08 02:47:56;;;;;;;;;;;;;;;11.51;69.90;103544.63;1260516;23;669;-69
2023/02/08 02:48:47;;;;;;;;;;;;;;;11.55;70.55;103549.00;1262358;23;648;-69
2023/02/08 02:49:37;;;;;;;;;;;;;;;11.56;70.11;103544.53;1262188;23;927;-69
2023/02/08 02:50:28;;;;;;;;;;;;;;;11.56;70.69;103544.53;1260648;23;633;-69
2023/02/08 02:51:18;;;;;;;;;;;;;;;11.56;70.57;103547.19;1260457;23;622;-69
2023/02/08 02:52:08;;;;;;;;;;;;;;;11.54;70.60;103543.69;1261695;23;680;-69
2023/02/08 02:52:59;;;;;;;;;;;;;;;11.53;70.22;103541.94;1260521;23;657;-69
2023/02/08 02:53:49;;;;;;;;;;;;;;;11.52;70.54;103538.38;1260658;23;673;-69
2023/02/08 02:54:40;;;;;;;;;;;;;;;11.53;70.25;103541.94;1260428;23;763;-69
2023/02/08 02:55:30;;;;;;;;;;;;;;;11.52;70.60;103542.84;1261686;23;665;-69
2023/02/08 02:56:20;;;;;;;;;;;;;;;11.48;70.16;103536.69;1260451;23;618;-69
2023/02/08 02:57:11;;;;;;;;;;;;;;;11.44;70.38;103543.94;1260497;23;710;-69
2023/02/08 02:58:01;;;;;;;;;;;;;;;11.41;70.23;103537.78;1260571;23;696;-69
2023/02/08 02:58:52;;;;;;;;;;;;;;;11.40;70.33;103552.94;1260508;23;676;-69
2023/02/08 02:59:44;;;;;;;;;;;;;;;11.38;71.11;103544.09;1260565;23;692;-69
2023/02/08 03:00:34;;;;;;;;;;;;;;;11.40;70.51;103536.91;1261341;23;673;-68
2023/02/08 03:01:24;;;;;;;;;;;;;;;11.42;70.55;103543.09;1262187;23;663;-69
2023/02/08 03:02:15;;;;;;;;;;;;;;;11.44;71.06;103543.94;1260394;23;622;-69
2023/02/08 03:03:06;;;;;;;;;;;;;;;11.44;70.00;103540.38;1262252;23;677;-69
2023/02/08 03:03:57;;;;;;;;;;;;;;;11.40;70.29;103544.03;1261435;23;633;-69
2023/02/08 03:04:47;;;;;;;;;;;;;;;11.41;70.95;103546.69;1261536;23;665;-69
2023/02/08 03:05:38;;;;;;;;;;;;;;;11.41;70.75;103543.13;1262163;23;1929;-68
2023/02/08 03:06:28;;;;;;;;;;;;;;;11.42;70.45;103540.44;1260017;23;642;-68
2023/02/08 03:07:19;;;;;;;;;;;;;;;11.41;70.03;103543.13;1260406;23;645;-68
2023/02/08 03:08:09;;;;;;;;;;;;;;;11.39;70.73;103543.16;1262229;23;661;-68
2023/02/08 03:09:00;;;;;;;;;;;;;;;11.39;71.09;103544.97;1260579;23;606;-68
2023/02/08 03:09:51;;;;;;;;;;;;;;;11.40;70.94;103546.72;1261447;23;657;-68
2023/02/08 03:10:41;;;;;;;;;;;;;;;11.37;71.00;103545.00;1260505;23;610;-67
2023/02/08 03:11:32;;;;;;;;;;;;;;;11.37;70.82;103552.13;1261274;23;617;-68
2023/02/08 03:12:22;;;;;;;;;;;;;;;11.36;70.33;103547.69;1260471;23;716;-67
2023/02/08 03:13:13;;;;;;;;;;;;;;;11.36;70.62;103550.38;1260464;23;897;-67
2023/02/08 03:14:03;;;;;;;;;;;;;;;11.40;70.43;103555.59;1260568;23;626;-68
2023/02/08 03:14:54;;;;;;;;;;;;;;;11.42;70.85;103548.44;1260514;23;959;-68
2023/02/08 03:15:44;;;;;;;;;;;;;;;11.41;70.27;103554.69;1260555;23;622;-67
2023/02/08 03:16:35;;;;;;;;;;;;;;;11.41;70.79;103545.81;1261988;23;645;-67
2023/02/08 03:17:25;;;;;;;;;;;;;;;11.41;70.35;103548.47;1260414;23;674;-67
2023/02/08 03:18:15;;;;;;;;;;;;;;;11.42;70.07;103544.88;1267008;23;653;-67
2023/02/08 03:19:06;;;;;;;;;;;;;;;11.40;70.11;103547.59;1268127;23;820;-67
2023/02/08 03:19:56;;;;;;;;;;;;;;;11.39;70.05;103540.50;1262345;23;617;-67
2023/02/08 03:20:47;;;;;;;;;;;;;;;11.36;70.06;103545.91;1266576;23;626;-67
2023/02/08 03:21:37;;;;;;;;;;;;;;;11.35;71.02;103551.28;1267880;23;626;-68
2023/02/08 03:22:27;;;;;;;;;;;;;;;11.39;70.26;103550.31;1262381;23;617;-68
2023/02/08 03:23:18;;;;;;;;;;;;;;;11.42;70.02;103544.88;1262233;23;617;-67
2023/02/08 03:24:08;;;;;;;;;;;;;;;11.42;69.78;103542.22;1260552;23;851;-68
2023/02/08 03:24:59;;;;;;;;;;;;;;;11.40;70.64;103541.38;1260441;23;752;-67
2023/02/08 03:25:49;;;;;;;;;;;;;;;11.35;70.95;103546.81;1260474;23;1922;-67
2023/02/08 03:26:40;;;;;;;;;;;;;;;11.34;70.83;103541.53;1261327;23;648;-67
2023/02/08 03:27:30;;;;;;;;;;;;;;;11.35;70.42;103545.94;1260554;23;645;-68
2023/02/08 03:28:21;;;;;;;;;;;;;;;11.34;70.63;103547.75;1260282;23;693;-67
2023/02/08 03:29:11;;;;;;;;;;;;;;;11.30;70.53;103548.72;1262249;23;625;-68
2023/02/08 03:30:02;;;;;;;;;;;;;;;11.30;69.91;103539.84;1260677;23;649;-67
2023/02/08 03:30:52;;;;;;;;;;;;;;;11.31;70.41;103544.25;1260489;23;666;-68
2023/02/08 03:31:43;;;;;;;;;;;;;;;11.30;70.93;103546.06;1266950;23;684;-68
2023/02/08 03:32:33;;;;;;;;;;;;;;;11.32;71.17;103549.56;1266126;23;598;-68
2023/02/08 03:33:23;;;;;;;;;;;;;;;11.35;70.53;103544.16;1262321;23;669;-68
2023/02/08 03:34:14;;;;;;;;;;;;;;;11.35;70.89;103545.94;1260401;23;665;-68
2023/02/08 03:35:04;;;;;;;;;;;;;;;11.37;69.84;103545.00;1267566;23;1081;-68
2023/02/08 03:35:56;;;;;;;;;;;;;;;11.33;70.98;103540.66;1266532;23;607;-68
2023/02/08 03:36:46;;;;;;;;;;;;;;;11.31;70.15;103547.81;1266509;23;598;-67
2023/02/08 03:37:37;;;;;;;;;;;;;;;11.29;71.00;103544.28;1265846;23;598;-67
2023/02/08 03:38:27;;;;;;;;;;;;;;;11.30;70.84;103540.72;1266353;23;618;-68
2023/02/08 03:39:17;;;;;;;;;;;;;;;11.33;70.04;103539.75;1266611;23;622;-67
2023/02/08 03:40:08;;;;;;;;;;;;;;;11.34;70.35;103536.19;1265585;23;624;-67
2023/02/08 03:40:58;;;;;;;;;;;;;;;11.35;69.98;103536.16;1265659;23;677;-68
2023/02/08 03:41:49;;;;;;;;;;;;;;;11.35;70.32;103538.81;1266413;23;962;-68
2023/02/08 03:42:39;;;;;;;;;;;;;;;11.36;70.58;103542.38;1265543;23;599;-67
2023/02/08 03:43:30;;;;;;;;;;;;;;;11.37;70.02;103537.00;1265780;23;633;-67
2023/02/08 03:44:20;;;;;;;;;;;;;;;11.35;69.92;103535.28;1266313;23;674;-67
2023/02/08 03:45:10;;;;;;;;;;;;;;;11.32;70.41;103533.56;1266583;23;828;-68
2023/02/08 03:46:01;;;;;;;;;;;;;;;11.29;70.10;103532.75;1265396;23;1944;-68
2023/02/08 03:46:51;;;;;;;;;;;;;;;11.28;71.18;103537.22;1266499;23;642;-68
2023/02/08 03:47:42;;;;;;;;;;;;;;;11.27;71.04;103535.47;1266126;23;680;-68
2023/02/08 03:48:32;;;;;;;;;;;;;;;11.25;70.84;103533.75;1267115;23;620;-68
2023/02/08 03:49:22;;;;;;;;;;;;;;;11.26;70.41;103538.19;1267296;23;613;-68
2023/02/08 03:50:13;;;;;;;;;;;;;;;11.28;70.30;103536.34;1265509;23;985;-68
2023/02/08 03:51:03;;;;;;;;;;;;;;;11.28;70.45;103542.56;1265652;23;622;-67
2023/02/08 03:51:54;;;;;;;;;;;;;;;11.27;70.72;103546.16;1266440;23;724;-69
2023/02/08 03:52:44;;;;;;;;;;;;;;;11.28;70.65;103542.56;1266417;23;638;-67
2023/02/08 03:53:39;;;;;;;;;;;;;;;11.32;70.65;103548.69;1266485;23;630;-69
2023/02/08 03:54:29;;;;;;;;;;;;;;;11.31;70.09;103546.94;1266601;23;642;-68
2023/02/08 03:55:20;;;;;;;;;;;;;;;11.28;70.61;103542.56;1265857;23;641;-69
2023/02/08 03:56:10;;;;;;;;;;;;;;;11.28;70.49;103547.03;1265654;23;650;-69
2023/02/08 03:57:01;;;;;;;;;;;;;;;11.30;69.92;103546.06;1266566;23;641;-69
2023/02/08 03:57:51;;;;;;;;;;;;;;;11.26;70.97;103548.88;1266460;23;674;-69
2023/02/08 03:58:41;;;;;;;;;;;;;;;11.25;70.31;103550.66;1265648;23;645;-69
2023/02/08 03:59:32;;;;;;;;;;;;;;;11.28;70.85;103549.69;1266351;23;701;-69
2023/02/08 04:00:22;;;;;;;;;;;;;;;11.30;70.09;103551.41;1266035;23;689;-69
2023/02/08 04:01:13;;;;;;;;;;;;;;;11.29;70.23;103549.63;1266094;23;744;-69
2023/02/08 04:02:03;;;;;;;;;;;;;;;11.30;70.28;103548.72;1267300;23;666;-70
2023/02/08 04:02:54;;;;;;;;;;;;;;;11.31;70.81;103545.13;1266595;23;598;-69
2023/02/08 04:03:45;;;;;;;;;;;;;;;11.29;70.83;103548.75;1266340;23;622;-68
2023/02/08 04:04:35;;;;;;;;;;;;;;;11.28;70.61;103550.59;1265904;23;650;-69
2023/02/08 04:05:25;;;;;;;;;;;;;;;11.29;70.62;103551.44;1265756;23;630;-69
2023/02/08 04:06:16;;;;;;;;;;;;;;;11.28;70.58;103547.03;1266493;23;646;-69
2023/02/08 04:07:06;;;;;;;;;;;;;;;11.29;70.12;103549.63;1266305;23;806;-67
2023/02/08 04:07:57;;;;;;;;;;;;;;;11.28;70.15;103549.69;1267008;23;691;-67
2023/02/08 04:08:49;;;;;;;;;;;;;;;11.25;70.73;103547.97;1267230;23;654;-69
2023/02/08 04:09:39;;;;;;;;;;;;;;;11.24;70.73;103548.91;1266143;23;676;-70
2023/02/08 04:10:30;;;;;;;;;;;;;;;11.25;70.18;103550.66;1266967;23;622;-67
2023/02/08 04:11:20;;;;;;;;;;;;;;;11.23;70.63;103547.13;1267275;23;662;-69
2023/02/08 04:12:11;;;;;;;;;;;;;;;11.26;69.85;103549.75;1266605;23;614;-70
2023/02/08 04:13:01;;;;;;;;;;;;;;;11.27;70.07;103547.94;1265485;23;635;-70
2023/02/08 04:13:51;;;;;;;;;;;;;;;11.27;70.17;103548.81;1265731;23;915;-70
2023/02/08 04:14:42;;;;;;;;;;;;;;;11.25;70.51;103541.75;1266367;23;634;-70
2023/02/08 04:15:32;;;;;;;;;;;;;;;11.26;70.79;103546.19;1266473;23;685;-69
2023/02/08 04:16:23;;;;;;;;;;;;;;;11.26;69.96;103541.72;1266540;23;622;-68
2023/02/08 04:17:13;;;;;;;;;;;;;;;11.27;70.67;103537.28;1266494;23;658;-69
2023/02/08 04:18:04;;;;;;;;;;;;;;;11.21;69.76;103535.63;1266593;23;626;-70
2023/02/08 04:18:54;;;;;;;;;;;;;;;11.23;70.54;103535.59;1265703;23;658;-68
2023/02/08 04:19:44;;;;;;;;;;;;;;;11.24;70.02;103540.88;1266548;23;657;-69
2023/02/08 04:20:35;;;;;;;;;;;;;;;11.28;70.82;103544.38;1265478;23;646;-69
2023/02/08 04:21:26;;;;;;;;;;;;;;;11.25;69.76;103536.44;1266371;23;654;-69
2023/02/08 04:22:16;;;;;;;;;;;;;;;11.27;69.72;103539.94;1266406;23;590;-69
2023/02/08 04:23:07;;;;;;;;;;;;;;;11.26;69.75;103527.50;1266489;23;634;-69
2023/02/08 04:23:57;;;;;;;;;;;;;;;11.27;69.68;103539.94;1265521;23;677;-69
2023/02/08 04:24:47;;;;;;;;;;;;;;;11.25;70.64;103533.75;1266639;23;633;-69
2023/02/08 04:25:38;;;;;;;;;;;;;;;11.26;70.38;103535.50;1266348;23;684;-67
2023/02/08 04:26:28;;;;;;;;;;;;;;;11.26;70.04;103533.72;1266429;23;654;-69
2023/02/08 04:27:19;;;;;;;;;;;;;;;11.27;69.86;103531.94;1266512;23;626;-69
2023/02/08 04:28:09;;;;;;;;;;;;;;;11.27;69.85;103539.94;1266386;23;641;-69
2023/02/08 04:28:59;;;;;;;;;;;;;;;11.24;69.94;103535.56;1266271;23;681;-69
2023/02/08 04:29:50;;;;;;;;;;;;;;;11.26;69.95;103530.19;1266975;23;644;-69
2023/02/08 04:30:40;;;;;;;;;;;;;;;11.28;70.31;103531.03;1266582;23;642;-68
2023/02/08 04:31:31;;;;;;;;;;;;;;;11.27;70.42;103532.81;1266840;23;634;-69
2023/02/08 04:32:21;;;;;;;;;;;;;;;11.24;70.34;103535.56;1266823;23;870;-69
2023/02/08 04:33:13;;;;;;;;;;;;;;;11.25;69.74;103525.75;1266431;23;624;-69
2023/02/08 04:34:04;;;;;;;;;;;;;;;11.23;69.51;103528.47;1266377;23;638;-69
2023/02/08 04:34:54;;;;;;;;;;;;;;;11.24;70.49;103530.22;1266584;23;1072;-69
2023/02/08 04:35:45;;;;;;;;;;;;;;;11.25;70.39;103521.28;1267709;23;701;-69
2023/02/08 04:36:35;;;;;;;;;;;;;;;11.25;70.22;103531.97;1267707;23;723;-69
2023/02/08 04:37:25;;;;;;;;;;;;;;;11.26;69.86;103528.38;1267725;23;657;-69
2023/02/08 04:38:16;;;;;;;;;;;;;;;11.25;69.91;103523.97;1267748;23;625;-67
2023/02/08 04:39:06;;;;;;;;;;;;;;;11.25;70.42;103536.44;1267752;23;754;-69
2023/02/08 04:39:57;;;;;;;;;;;;;;;11.27;69.86;103523.94;1267845;23;645;-69
2023/02/08 04:40:47;;;;;;;;;;;;;;;11.29;70.23;103522.94;1267672;23;631;-69
2023/02/08 04:41:37;;;;;;;;;;;;;;;11.27;70.20;103526.59;1267621;23;689;-67
2023/02/08 04:42:29;;;;;;;;;;;;;;;11.25;70.23;103531.97;1267710;23;763;-67
2023/02/08 04:43:19;;;;;;;;;;;;;;;11.22;69.54;103525.81;1267798;23;696;-69
2023/02/08 04:44:10;;;;;;;;;;;;;;;11.20;70.20;103524.97;1272776;23;658;-69
2023/02/08 04:45:00;;;;;;;;;;;;;;;11.20;69.93;103531.19;1273417;23;614;-69
2023/02/08 04:45:50;;;;;;;;;;;;;;;11.20;70.40;103535.66;1266996;23;1937;-69
2023/02/08 04:46:41;;;;;;;;;;;;;;;11.20;70.46;103533.88;1267753;23;653;-69
2023/02/08 04:47:31;;;;;;;;;;;;;;;11.20;70.33;103532.97;1267641;23;641;-69
2023/02/08 04:48:22;;;;;;;;;;;;;;;11.18;69.94;103527.69;1267657;23;758;-69
2023/02/08 04:49:12;;;;;;;;;;;;;;;11.17;70.61;103533.94;1267726;23;621;-69
2023/02/08 04:50:03;;;;;;;;;;;;;;;11.18;69.80;103533.03;1267835;23;645;-69
2023/02/08 04:50:53;;;;;;;;;;;;;;;11.17;70.76;103528.59;1267628;23;625;-69
2023/02/08 04:51:43;;;;;;;;;;;;;;;11.14;69.91;103534.00;1267619;23;673;-69
2023/02/08 04:52:34;;;;;;;;;;;;;;;11.12;70.47;103527.81;1267726;23;653;-69
2023/02/08 04:53:24;;;;;;;;;;;;;;;11.14;69.91;103526.00;1267738;23;602;-69
2023/02/08 04:54:15;;;;;;;;;;;;;;;11.13;70.37;103521.56;1267722;23;613;-68
2023/02/08 04:55:05;;;;;;;;;;;;;;;11.14;69.88;103520.66;1267869;23;672;-68
2023/02/08 04:55:56;;;;;;;;;;;;;;;11.13;70.56;103522.44;1267723;23;651;-68
2023/02/08 04:56:46;;;;;;;;;;;;;;;11.15;70.46;103525.09;1267740;23;715;-68
2023/02/08 04:57:37;;;;;;;;;;;;;;;11.15;70.65;103525.09;1267625;23;790;-67
2023/02/08 04:58:27;;;;;;;;;;;;;;;11.15;70.22;103514.41;1267570;23;647;-67
2023/02/08 04:59:17;;;;;;;;;;;;;;;11.16;70.17;103512.63;1267623;23;617;-67
2023/02/08 05:00:08;;;;;;;;;;;;;;;11.17;70.52;103522.38;1268564;23;703;-67
2023/02/08 05:00:58;;;;;;;;;;;;;;;11.17;70.07;103517.03;1267718;23;664;-67
2023/02/08 05:01:49;;;;;;;;;;;;;;;11.17;70.29;103517.91;1267621;23;649;-68
2023/02/08 05:02:39;;;;;;;;;;;;;;;11.18;69.74;103518.81;1266983;23;622;-67
2023/02/08 05:03:29;;;;;;;;;;;;;;;11.18;70.59;103516.13;1267688;23;703;-67
2023/02/08 05:04:20;;;;;;;;;;;;;;;11.19;70.45;103520.56;1267553;23;755;-67
2023/02/08 05:05:10;;;;;;;;;;;;;;;11.17;70.59;103514.38;1267601;23;625;-67
2023/02/08 05:06:01;;;;;;;;;;;;;;;11.18;69.95;103518.81;1272465;23;1877;-67
2023/02/08 05:06:51;;;;;;;;;;;;;;;11.15;70.53;103517.06;1273455;23;900;-67
2023/02/08 05:07:42;;;;;;;;;;;;;;;11.15;70.42;103519.75;1266825;23;629;-67
2023/02/08 05:08:32;;;;;;;;;;;;;;;11.16;70.30;103518.84;1267549;23;594;-67
2023/02/08 05:09:22;;;;;;;;;;;;;;;11.16;69.59;103516.16;1267699;23;621;-67
2023/02/08 05:10:13;;;;;;;;;;;;;;;11.16;70.04;103520.63;1267607;23;598;-67
2023/02/08 05:11:03;;;;;;;;;;;;;;;11.14;69.84;103524.19;1267565;23;650;-67
2023/02/08 05:11:54;;;;;;;;;;;;;;;11.13;69.89;103518.91;1267739;23;614;-68
2023/02/08 05:12:44;;;;;;;;;;;;;;;11.12;70.38;103520.69;1267633;23;645;-67
2023/02/08 05:13:35;;;;;;;;;;;;;;;11.13;70.03;103514.44;1267645;23;634;-68
2023/02/08 05:14:25;;;;;;;;;;;;;;;11.12;69.65;103515.34;1267573;23;649;-68
2023/02/08 05:15:15;;;;;;;;;;;;;;;11.11;69.87;103520.72;1267615;23;729;-67
2023/02/08 05:16:06;;;;;;;;;;;;;;;11.14;69.96;103518.00;1272472;23;661;-67
2023/02/08 05:16:56;;;;;;;;;;;;;;;11.17;69.61;103517.91;1272869;23;641;-67
2023/02/08 05:17:47;;;;;;;;;;;;;;;11.15;69.91;103519.75;1267780;23;653;-67
2023/02/08 05:18:38;;;;;;;;;;;;;;;11.15;70.12;103514.41;1267643;23;637;-68
2023/02/08 05:19:28;;;;;;;;;;;;;;;11.14;69.85;103510.84;1267625;23;642;-67
2023/02/08 05:20:18;;;;;;;;;;;;;;;11.15;69.61;103509.06;1267659;23;649;-67
2023/02/08 05:21:09;;;;;;;;;;;;;;;11.15;69.82;103509.06;1267663;23;638;-67
2023/02/08 05:21:59;;;;;;;;;;;;;;;11.13;69.80;103503.78;1267595;23;649;-67
2023/02/08 05:22:50;;;;;;;;;;;;;;;11.13;70.25;103506.44;1272547;23;665;-67
2023/02/08 05:23:40;;;;;;;;;;;;;;;11.12;70.51;103503.81;1273236;23;656;-67
2023/02/08 05:24:30;;;;;;;;;;;;;;;11.11;70.25;103497.59;1267628;23;896;-67
2023/02/08 05:25:21;;;;;;;;;;;;;;;11.13;70.35;103510.91;1267655;23;613;-67
2023/02/08 05:26:12;;;;;;;;;;;;;;;11.14;69.22;103504.66;1267574;23;1968;-67
2023/02/08 05:27:02;;;;;;;;;;;;;;;11.12;69.65;103501.13;1267656;23;606;-67
2023/02/08 05:27:52;;;;;;;;;;;;;;;11.12;69.58;103498.47;1267513;23;681;-67
2023/02/08 05:28:43;;;;;;;;;;;;;;;11.10;69.91;103501.19;1272306;23;641;-67
2023/02/08 05:29:33;;;;;;;;;;;;;;;11.10;70.10;103506.53;1273301;23;625;-67
2023/02/08 05:30:24;;;;;;;;;;;;;;;11.11;69.63;103507.38;1267721;23;638;-67
2023/02/08 05:31:14;;;;;;;;;;;;;;;11.08;69.97;103499.47;1266969;23;736;-67
2023/02/08 05:32:05;;;;;;;;;;;;;;;11.07;69.83;103501.28;1267591;23;649;-67
2023/02/08 05:32:55;;;;;;;;;;;;;;;11.05;69.94;103512.91;1266740;23;662;-67
2023/02/08 05:33:46;;;;;;;;;;;;;;;11.02;69.84;103502.28;1267547;23;845;-67
2023/02/08 05:34:36;;;;;;;;;;;;;;;11.03;70.49;103506.72;1267388;23;650;-67